Time;durP1;ratioP1;P1;durP2;ratioP2;P2;SDS_P1;SDS_P2;PMS_P1;PMS_P2;Temp;Humidity;BMP_temperature;BMP_pressure;BME280_temperature;BME280_humidity;BME280_pressure;Samples;Min_cycle;Max_cycle;Signal;HPM_P1;HPM_P2
2021/11/13 00:01:56;;;;;;;42.78;18.10;;;;;;;;;;5047676;28;20048;-82
2021/11/13 00:04:23;;;;;;;76.35;34.33;;;;;;;;;;5047934;28;20049;-81
2021/11/13 00:06:50;;;;;;;59.47;27.73;;;;;;;;;;5048139;28;20059;-82
2021/11/13 00:09:19;;;;;;;44.67;21.60;;;;;;;;;;5046601;28;20048;-82
2021/11/13 00:11:48;;;;;;;44.08;18.52;;;;;;;;;;5046829;28;20053;-82
2021/11/13 00:14:19;;;;;;;47.72;19.67;;;;;;;;;;5047716;28;20106;-81
2021/11/13 00:16:46;;;;;;;;;;;;;;;;;;5046851;28;20048;-82
2021/11/13 00:19:13;;;;;;;41.65;18.48;;;;;;;;;;5047760;28;19928;-82
2021/11/13 00:21:40;;;;;;;41.08;17.95;;;;;;;;;;5046601;28;20060;-81
2021/11/13 00:24:08;;;;;;;44.67;18.80;;;;;;;;;;5048028;28;20076;-83
2021/11/13 00:26:36;;;;;;;39.67;18.20;;;;;;;;;;5049508;28;20051;-82
2021/11/13 00:29:03;;;;;;;41.30;18.38;;;;;;;;;;5050208;28;20060;-82
2021/11/13 00:31:32;;;;;;;40.85;18.92;;;;;;;;;;5050720;28;20049;-81
2021/11/13 00:33:59;;;;;;;51.65;21.60;;;;;;;;;;5050671;28;20045;-82
2021/11/13 00:36:27;;;;;;;45.63;19.60;;;;;;;;;;5049671;28;20052;-82
2021/11/13 00:38:55;;;;;;;45.30;18.95;;;;;;;;;;5050512;28;20056;-82
2021/11/13 00:41:22;;;;;;;46.95;21.40;;;;;;;;;;5050339;28;20064;-82
2021/11/13 00:43:50;;;;;;;45.10;20.15;;;;;;;;;;5049839;28;20083;-82
2021/11/13 00:46:17;;;;;;;48.50;20.08;;;;;;;;;;5049436;28;20100;-82
2021/11/13 00:48:44;;;;;;;49.03;20.90;;;;;;;;;;5050128;28;20049;-82
2021/11/13 00:51:11;;;;;;;50.42;20.05;;;;;;;;;;5049522;28;20045;-82
2021/11/13 00:53:38;;;;;;;45.22;20.58;;;;;;;;;;5054212;28;20049;-83
2021/11/13 00:56:05;;;;;;;51.22;20.52;;;;;;;;;;5052508;28;20139;-82
2021/11/13 00:58:33;;;;;;;44.85;20.73;;;;;;;;;;5053138;28;20044;-82
2021/11/13 01:01:02;;;;;;;51.50;21.45;;;;;;;;;;5051927;28;20148;-82
2021/11/13 01:03:29;;;;;;;47.97;20.65;;;;;;;;;;5052131;28;20073;-82
2021/11/13 01:05:56;;;;;;;58.47;22.55;;;;;;;;;;5052003;28;20049;-82
2021/11/13 01:08:24;;;;;;;51.80;22.23;;;;;;;;;;5051859;28;20048;-82
2021/11/13 01:10:51;;;;;;;50.22;20.80;;;;;;;;;;5053289;28;20396;-82
2021/11/13 01:13:19;;;;;;;46.95;20.15;;;;;;;;;;5056088;28;20065;-81
2021/11/13 01:15:46;;;;;;;47.85;20.42;;;;;;;;;;5064012;28;20049;-81
2021/11/13 01:18:15;;;;;;;45.47;20.48;;;;;;;;;;5058949;28;20067;-82
2021/11/13 01:20:42;;;;;;;49.40;21.02;;;;;;;;;;5051760;28;20060;-83
2021/11/13 01:23:09;;;;;;;51.10;22.65;;;;;;;;;;5051301;28;20045;-81
2021/11/13 01:25:36;;;;;;;43.33;19.83;;;;;;;;;;5053338;28;20044;-81
2021/11/13 01:28:03;;;;;;;46.65;21.10;;;;;;;;;;5054370;28;20052;-81
2021/11/13 01:30:30;;;;;;;42.40;20.38;;;;;;;;;;5053543;28;20232;-81
2021/11/13 01:32:58;;;;;;;46.65;21.55;;;;;;;;;;5063784;28;20049;-80
2021/11/13 01:35:26;;;;;;;45.00;21.05;;;;;;;;;;5071961;28;20040;-82
2021/11/13 01:37:54;;;;;;;42.85;20.05;;;;;;;;;;5073655;28;20053;-81
2021/11/13 01:40:23;;;;;;;43.92;20.25;;;;;;;;;;5057858;28;20056;-82
2021/11/13 01:42:51;;;;;;;40.20;19.33;;;;;;;;;;5056131;28;20061;-82
2021/11/13 01:45:18;;;;;;;44.65;21.23;;;;;;;;;;5053836;28;20056;-81
2021/11/13 01:47:46;;;;;;;43.05;20.08;;;;;;;;;;5053754;28;20136;-82
2021/11/13 01:50:16;;;;;;;45.97;20.33;;;;;;;;;;5053327;28;20041;-83
2021/11/13 01:52:45;;;;;;;46.55;21.17;;;;;;;;;;5053292;28;20060;-82
2021/11/13 01:55:13;;;;;;;44.90;21.05;;;;;;;;;;5053689;28;20091;-81
2021/11/13 01:57:47;;;;;;;48.78;20.55;;;;;;;;;;5053708;28;20041;-81
2021/11/13 02:00:18;;;;;;;50.42;21.58;;;;;;;;;;5053075;28;20048;-82
2021/11/13 02:02:46;;;;;;;43.42;19.80;;;;;;;;;;5052679;28;20049;-82
2021/11/13 02:05:13;;;;;;;44.78;20.50;;;;;;;;;;5051914;28;20084;-81
2021/11/13 02:07:44;;;;;;;42.05;20.00;;;;;;;;;;5053043;28;20041;-83
2021/11/13 02:10:13;;;;;;;44.22;20.17;;;;;;;;;;5052440;28;20049;-81
2021/11/13 02:12:41;;;;;;;44.13;19.42;;;;;;;;;;5051538;28;20514;-81
2021/11/13 02:15:09;;;;;;;42.45;19.88;;;;;;;;;;5051822;28;20068;-80
2021/11/13 02:17:37;;;;;;;43.15;20.63;;;;;;;;;;5052220;28;20421;-82
2021/11/13 02:20:26;;;;;;;39.00;18.77;;;;;;;;;;5052151;28;20045;-81
2021/11/13 02:22:54;;;;;;;42.65;20.48;;;;;;;;;;5051350;28;20049;-81
2021/11/13 02:25:23;;;;;;;40.30;19.25;;;;;;;;;;5050857;28;20041;-82
2021/11/13 02:27:51;;;;;;;40.13;20.35;;;;;;;;;;5052048;28;20045;-82
2021/11/13 02:30:18;;;;;;;38.63;18.67;;;;;;;;;;5051740;28;20534;-82
2021/11/13 02:32:46;;;;;;;38.30;18.55;;;;;;;;;;5051692;28;20057;-81
2021/11/13 02:35:18;;;;;;;42.08;19.17;;;;;;;;;;5049869;28;20041;-83
2021/11/13 02:37:47;;;;;;;64.38;20.50;;;;;;;;;;5051427;28;20060;-82
2021/11/13 02:40:15;;;;;;;41.20;19.67;;;;;;;;;;5050902;28;20053;-82
2021/11/13 02:42:42;;;;;;;40.58;19.20;;;;;;;;;;5051133;28;20048;-81
2021/11/13 02:45:12;;;;;;;42.17;19.40;;;;;;;;;;5050628;28;20048;-81
2021/11/13 02:47:42;;;;;;;41.00;19.40;;;;;;;;;;5050335;28;20051;-82
2021/11/13 02:50:11;;;;;;;45.67;20.25;;;;;;;;;;5051191;28;20076;-82
2021/11/13 02:52:48;;;;;;;41.10;20.65;;;;;;;;;;5052403;28;20158;-81
2021/11/13 02:55:15;;;;;;;42.63;19.08;;;;;;;;;;5052573;28;20045;-82
2021/11/13 02:57:43;;;;;;;46.85;21.10;;;;;;;;;;5056027;28;20047;-81
2021/11/13 03:00:12;;;;;;;42.25;18.98;;;;;;;;;;5053487;28;20112;-81
2021/11/13 03:02:40;;;;;;;46.42;21.20;;;;;;;;;;5052841;28;20052;-81
2021/11/13 03:05:21;;;;;;;42.42;19.85;;;;;;;;;;5052751;28;20152;-82
2021/11/13 03:07:50;;;;;;;54.65;20.85;;;;;;;;;;5052924;28;20048;-81
2021/11/13 03:10:17;;;;;;;44.20;20.38;;;;;;;;;;5051807;28;20099;-82
2021/11/13 03:12:44;;;;;;;52.55;22.25;;;;;;;;;;5051213;28;20053;-83
2021/11/13 03:15:14;;;;;;;47.58;20.98;;;;;;;;;;5051378;28;20049;-83
2021/11/13 03:17:42;;;;;;;64.93;20.75;;;;;;;;;;5051199;28;20067;-82
2021/11/13 03:20:11;;;;;;;37.05;19.00;;;;;;;;;;5051431;28;20056;-81
2021/11/13 03:22:38;;;;;;;52.10;21.17;;;;;;;;;;5050995;28;20741;-81
2021/11/13 03:25:09;;;;;;;56.53;22.17;;;;;;;;;;5049708;28;20052;-81
2021/11/13 03:27:37;;;;;;;46.33;19.55;;;;;;;;;;5090755;22;20041;-63
2021/11/13 03:30:07;;;;;;;37.33;18.25;;;;;;;;;;5070351;28;20131;-64
2021/11/13 03:32:34;;;;;;;40.67;17.88;;;;;;;;;;5070415;28;20058;-64
2021/11/13 03:35:02;;;;;;;101.80;23.42;;;;;;;;;;5070443;28;20143;-63
2021/11/13 03:37:30;;;;;;;57.42;19.85;;;;;;;;;;5070535;28;20143;-63
2021/11/13 03:39:57;;;;;;;53.97;20.65;;;;;;;;;;5070143;28;20059;-63
2021/11/13 03:42:29;;;;;;;45.45;19.73;;;;;;;;;;5070407;28;20058;-63
2021/11/13 03:44:57;;;;;;;43.92;19.42;;;;;;;;;;5070504;28;20052;-63
2021/11/13 03:47:24;;;;;;;39.90;18.20;;;;;;;;;;5070165;28;20131;-62
2021/11/13 03:49:51;;;;;;;37.00;17.92;;;;;;;;;;5070185;28;20123;-64
2021/11/13 03:52:18;;;;;;;30.58;16.70;;;;;;;;;;5070206;28;20071;-64
2021/11/13 03:54:45;;;;;;;32.78;16.10;;;;;;;;;;5070086;28;20052;-64
2021/11/13 03:57:12;;;;;;;32.97;15.82;;;;;;;;;;5070329;28;20460;-63
2021/11/13 03:59:41;;;;;;;34.88;16.90;;;;;;;;;;5069783;28;20088;-64
2021/11/13 04:02:10;;;;;;;33.03;16.20;;;;;;;;;;5070111;28;20060;-62
2021/11/13 04:04:37;;;;;;;33.83;16.63;;;;;;;;;;5069840;28;20126;-64
2021/11/13 04:07:05;;;;;;;32.78;16.45;;;;;;;;;;5070114;28;20657;-64
2021/11/13 04:09:32;;;;;;;36.70;17.27;;;;;;;;;;5070386;28;20414;-63
2021/11/13 04:12:04;;;;;;;31.63;16.73;;;;;;;;;;5069877;28;20047;-64
2021/11/13 04:14:31;;;;;;;33.90;16.55;;;;;;;;;;5070335;28;20486;-63
2021/11/13 04:17:00;;;;;;;32.28;16.13;;;;;;;;;;5070156;28;20044;-64
2021/11/13 04:19:27;;;;;;;29.88;15.02;;;;;;;;;;5069990;28;20511;-64
2021/11/13 04:21:54;;;;;;;27.90;14.77;;;;;;;;;;5070083;28;20048;-62
2021/11/13 04:24:22;;;;;;;36.92;16.65;;;;;;;;;;5070040;28;20443;-64
2021/11/13 04:26:49;;;;;;;33.63;18.33;;;;;;;;;;5069873;28;20131;-63
2021/11/13 04:29:16;;;;;;;33.22;17.35;;;;;;;;;;5069846;28;20473;-63
2021/11/13 04:31:43;;;;;;;33.15;17.17;;;;;;;;;;5069567;28;20523;-64
2021/11/13 04:34:19;;;;;;;38.47;16.63;;;;;;;;;;5069733;28;20059;-64
2021/11/13 04:36:50;;;;;;;34.17;16.77;;;;;;;;;;5070193;28;20106;-64
2021/11/13 04:39:17;;;;;;;31.92;16.30;;;;;;;;;;5070121;28;20401;-64
2021/11/13 04:41:44;;;;;;;42.38;16.65;;;;;;;;;;5069776;28;20062;-62
2021/11/13 04:44:11;;;;;;;34.60;17.45;;;;;;;;;;5069786;28;20051;-62
2021/11/13 04:46:38;;;;;;;35.05;17.02;;;;;;;;;;5049628;28;20076;-64
2021/11/13 04:49:05;;;;;;;39.88;17.55;;;;;;;;;;5063583;28;20106;-64
2021/11/13 04:51:34;;;;;;;31.13;16.08;;;;;;;;;;5069417;28;20052;-64
2021/11/13 04:54:01;;;;;;;37.15;17.13;;;;;;;;;;5069828;28;20623;-63
2021/11/13 04:56:28;;;;;;;34.55;17.27;;;;;;;;;;5069406;28;20577;-64
2021/11/13 04:58:55;;;;;;;36.03;18.00;;;;;;;;;;5069641;28;20386;-64
2021/11/13 05:01:22;;;;;;;33.40;16.95;;;;;;;;;;5069049;28;20068;-64
2021/11/13 05:03:49;;;;;;;35.70;17.38;;;;;;;;;;5069445;28;20044;-64
2021/11/13 05:06:16;;;;;;;32.65;17.30;;;;;;;;;;5069205;28;20055;-63
2021/11/13 05:08:44;;;;;;;33.85;16.42;;;;;;;;;;5069248;28;20469;-64
2021/11/13 05:11:11;;;;;;;31.63;16.80;;;;;;;;;;5070107;28;20057;-63
2021/11/13 05:13:38;;;;;;;33.80;17.13;;;;;;;;;;5072767;28;20048;-63
2021/11/13 05:16:05;;;;;;;34.72;16.77;;;;;;;;;;5072699;28;20125;-64
2021/11/13 05:18:32;;;;;;;32.50;16.35;;;;;;;;;;5072979;28;20459;-63
2021/11/13 05:20:59;;;;;;;40.22;18.38;;;;;;;;;;5072818;28;20053;-63
2021/11/13 05:23:26;;;;;;;36.72;17.60;;;;;;;;;;5072880;28;20055;-62
2021/11/13 05:25:55;;;;;;;39.75;18.85;;;;;;;;;;5072570;28;20097;-64
2021/11/13 05:28:22;;;;;;;43.00;19.60;;;;;;;;;;5072648;28;20044;-63
2021/11/13 05:30:49;;;;;;;32.10;17.25;;;;;;;;;;5072711;28;20084;-63
2021/11/13 05:33:16;;;;;;;35.33;18.73;;;;;;;;;;5072454;28;20049;-64
2021/11/13 05:35:43;;;;;;;35.38;17.45;;;;;;;;;;5072709;28;20405;-61
2021/11/13 05:38:10;;;;;;;38.42;18.00;;;;;;;;;;5072508;28;20051;-63
2021/11/13 05:40:37;;;;;;;35.28;17.17;;;;;;;;;;5072438;28;20234;-64
2021/11/13 05:43:05;;;;;;;33.72;16.48;;;;;;;;;;5072346;28;20056;-64
2021/11/13 05:45:32;;;;;;;34.05;17.45;;;;;;;;;;5072537;28;20139;-64
2021/11/13 05:47:59;;;;;;;35.38;16.92;;;;;;;;;;5072371;28;20048;-63
2021/11/13 05:50:26;;;;;;;39.35;18.38;;;;;;;;;;5072309;28;20044;-64
2021/11/13 05:52:54;;;;;;;33.20;16.65;;;;;;;;;;5072054;28;20055;-63
2021/11/13 05:55:24;;;;;;;31.38;16.33;;;;;;;;;;5072111;28;20049;-64
2021/11/13 05:57:51;;;;;;;38.42;19.02;;;;;;;;;;5072143;28;20086;-64
2021/11/13 06:00:21;;;;;;;32.60;15.45;;;;;;;;;;5072189;28;20140;-64
2021/11/13 06:02:49;;;;;;;38.22;18.42;;;;;;;;;;5072057;28;20044;-64
2021/11/13 06:05:16;;;;;;;34.42;15.88;;;;;;;;;;5071825;28;20052;-63
2021/11/13 06:07:44;;;;;;;40.83;18.40;;;;;;;;;;5071923;28;20059;-64
2021/11/13 06:10:13;;;;;;;38.05;17.75;;;;;;;;;;5071851;28;20052;-64
2021/11/13 06:12:41;;;;;;;37.13;17.67;;;;;;;;;;5071771;28;20049;-64
2021/11/13 06:15:10;;;;;;;38.63;18.50;;;;;;;;;;5071711;28;20059;-62
2021/11/13 06:17:39;;;;;;;40.88;18.60;;;;;;;;;;5071735;28;20055;-64
2021/11/13 06:20:08;;;;;;;34.15;16.63;;;;;;;;;;5071727;28;20052;-62
2021/11/13 06:22:35;;;;;;;39.25;17.40;;;;;;;;;;5071256;28;20155;-63
2021/11/13 06:25:02;;;;;;;44.17;19.40;;;;;;;;;;5071631;28;20055;-63
2021/11/13 06:27:29;;;;;;;42.45;18.60;;;;;;;;;;5071559;28;20058;-63
2021/11/13 06:29:56;;;;;;;39.42;18.65;;;;;;;;;;5071532;28;20044;-63
2021/11/13 06:32:23;;;;;;;45.17;19.63;;;;;;;;;;5071477;28;20059;-62
2021/11/13 06:34:56;;;;;;;44.83;19.05;;;;;;;;;;5071384;28;20047;-63
2021/11/13 06:37:23;;;;;;;42.42;19.08;;;;;;;;;;5071553;28;20086;-63
2021/11/13 06:39:50;;;;;;;44.30;20.40;;;;;;;;;;5071446;28;20065;-63
2021/11/13 06:42:17;;;;;;;42.88;18.20;;;;;;;;;;5071216;28;20051;-61
2021/11/13 06:44:44;;;;;;;41.63;18.30;;;;;;;;;;5071215;28;20044;-64
2021/11/13 06:47:12;;;;;;;40.38;18.90;;;;;;;;;;5071027;28;20142;-63
2021/11/13 06:49:39;;;;;;;41.10;19.65;;;;;;;;;;5070945;28;20049;-63
2021/11/13 06:52:08;;;;;;;44.55;19.75;;;;;;;;;;5071215;28;20511;-63
2021/11/13 06:54:34;;;;;;;45.97;20.27;;;;;;;;;;5070583;28;20044;-62
2021/11/13 06:57:02;;;;;;;44.08;19.55;;;;;;;;;;5067765;28;20424;-61
2021/11/13 06:59:29;;;;;;;42.05;20.67;;;;;;;;;;5067030;28;20049;-62
2021/11/13 07:01:56;;;;;;;40.80;19.90;;;;;;;;;;5066241;28;20496;-62
2021/11/13 07:04:23;;;;;;;41.55;19.92;;;;;;;;;;5066376;28;20049;-63
2021/11/13 07:06:50;;;;;;;41.05;19.17;;;;;;;;;;5065587;28;20650;-62
2021/11/13 07:09:18;;;;;;;42.72;18.58;;;;;;;;;;5065794;28;21334;-61
2021/11/13 07:11:45;;;;;;;41.97;20.63;;;;;;;;;;5065873;28;20041;-62
2021/11/13 07:14:12;;;;;;;42.85;19.63;;;;;;;;;;5065586;28;20048;-62
2021/11/13 07:16:39;;;;;;;40.58;19.17;;;;;;;;;;5065334;28;20087;-63
2021/11/13 07:19:06;;;;;;;43.10;20.15;;;;;;;;;;5066473;28;20448;-62
2021/11/13 07:21:35;;;;;;;40.70;18.27;;;;;;;;;;5066100;28;20526;-62
2021/11/13 07:24:02;;;;;;;45.95;18.75;;;;;;;;;;5066382;28;20102;-62
2021/11/13 07:26:30;;;;;;;43.47;19.10;;;;;;;;;;5065465;28;20052;-62
2021/11/13 07:29:03;;;;;;;40.47;19.35;;;;;;;;;;5065998;28;20078;-61
2021/11/13 07:31:30;;;;;;;48.00;20.38;;;;;;;;;;5066169;28;20075;-62
2021/11/13 07:33:57;;;;;;;45.70;20.50;;;;;;;;;;5065400;28;20041;-62
2021/11/13 07:36:24;;;;;;;44.72;19.50;;;;;;;;;;5065792;28;20063;-62
2021/11/13 07:38:52;;;;;;;36.78;16.80;;;;;;;;;;5066174;28;20049;-63
2021/11/13 07:41:21;;;;;;;37.28;18.05;;;;;;;;;;5065591;28;20475;-62
2021/11/13 07:43:50;;;;;;;39.35;19.13;;;;;;;;;;5066069;28;20504;-63
2021/11/13 07:46:17;;;;;;;40.28;18.80;;;;;;;;;;5065502;28;20179;-62
2021/11/13 07:48:44;;;;;;;36.83;19.08;;;;;;;;;;5066084;28;20497;-63
2021/11/13 07:51:11;;;;;;;39.22;18.40;;;;;;;;;;5065451;28;20456;-62
2021/11/13 07:53:38;;;;;;;44.22;19.15;;;;;;;;;;5065460;28;20048;-62
2021/11/13 07:56:06;;;;;;;38.20;18.67;;;;;;;;;;5065867;28;20551;-62
2021/11/13 07:58:33;;;;;;;38.20;17.90;;;;;;;;;;5065664;28;20140;-63
2021/11/13 08:01:02;;;;;;;37.53;19.30;;;;;;;;;;5066545;28;20715;-63
2021/11/13 08:03:29;;;;;;;36.08;17.23;;;;;;;;;;5064876;28;20063;-62
2021/11/13 08:05:56;;;;;;;35.67;18.63;;;;;;;;;;5065157;28;20059;-62
2021/11/13 08:08:23;;;;;;;39.45;18.08;;;;;;;;;;5065081;28;20101;-62
2021/11/13 08:10:50;;;;;;;36.13;17.85;;;;;;;;;;5064915;28;20057;-63
2021/11/13 08:13:19;;;;;;;38.88;19.13;;;;;;;;;;5065540;28;20421;-62
2021/11/13 08:15:47;;;;;;;30.65;17.50;;;;;;;;;;5065011;28;20590;-61
2021/11/13 08:18:17;;;;;;;33.25;16.67;;;;;;;;;;5065256;28;20057;-63
2021/11/13 08:20:44;;;;;;;34.72;16.98;;;;;;;;;;5064670;28;20136;-64
2021/11/13 08:23:11;;;;;;;33.72;17.00;;;;;;;;;;5065083;28;20127;-63
2021/11/13 08:25:40;;;;;;;29.80;16.50;;;;;;;;;;5065219;28;20094;-63
2021/11/13 08:28:08;;;;;;;37.42;18.25;;;;;;;;;;5064959;28;20049;-62
2021/11/13 08:30:36;;;;;;;33.45;17.73;;;;;;;;;;5064847;28;20462;-62
2021/11/13 08:33:06;;;;;;;34.20;18.40;;;;;;;;;;5064827;28;20088;-63
2021/11/13 08:35:35;;;;;;;36.70;19.33;;;;;;;;;;5065073;28;20060;-64
2021/11/13 08:38:02;;;;;;;37.63;18.90;;;;;;;;;;5065732;28;20405;-63
2021/11/13 08:40:29;;;;;;;34.72;18.98;;;;;;;;;;5066885;28;20044;-63
2021/11/13 08:42:56;;;;;;;36.28;19.05;;;;;;;;;;5065398;28;20478;-62
2021/11/13 08:45:23;;;;;;;35.65;17.13;;;;;;;;;;5065525;28;20052;-62
2021/11/13 08:47:51;;;;;;;37.53;17.80;;;;;;;;;;5069133;28;20109;-63
2021/11/13 08:50:23;;;;;;;35.28;17.45;;;;;;;;;;5068669;28;20735;-63
2021/11/13 08:52:53;;;;;;;32.17;16.98;;;;;;;;;;5069003;28;20052;-63
2021/11/13 08:55:21;;;;;;;33.15;17.35;;;;;;;;;;5068955;28;20440;-62
2021/11/13 08:57:51;;;;;;;30.55;15.18;;;;;;;;;;5068781;28;20397;-62
2021/11/13 09:00:22;;;;;;;35.17;18.98;;;;;;;;;;5068897;28;20082;-63
2021/11/13 09:02:53;;;;;;;33.83;17.33;;;;;;;;;;5068835;28;20070;-63
2021/11/13 09:05:20;;;;;;;31.60;16.10;;;;;;;;;;5068266;28;20222;-62
2021/11/13 09:07:48;;;;;;;35.90;17.98;;;;;;;;;;5068536;28;20044;-63
2021/11/13 09:10:17;;;;;;;36.30;17.65;;;;;;;;;;5068621;28;20044;-63
2021/11/13 09:12:44;;;;;;;33.60;17.95;;;;;;;;;;5068658;28;20669;-64
2021/11/13 09:15:16;;;;;;;30.77;17.35;;;;;;;;;;5069023;28;20057;-64
2021/11/13 09:17:43;;;;;;;32.85;17.10;;;;;;;;;;5069803;28;20056;-63
2021/11/13 09:20:11;;;;;;;35.63;17.38;;;;;;;;;;5069867;28;20056;-63
2021/11/13 09:22:38;;;;;;;35.88;17.65;;;;;;;;;;5070571;28;20515;-63
2021/11/13 09:25:08;;;;;;;31.80;16.95;;;;;;;;;;5069913;28;20059;-62
2021/11/13 09:27:38;;;;;;;30.53;17.97;;;;;;;;;;5069554;28;20059;-63
2021/11/13 09:35:59;;;;;;;29.55;16.50;;;;;;;;;;5057357;28;20413;-68
2021/11/13 09:41:30;;;;;;;30.83;16.77;;;;;;;;;;5058785;28;20049;-68
2021/11/13 09:44:26;;;;;;;29.33;17.05;;;;;;;;;;5061190;28;20412;-66
2021/11/13 09:49:49;;;;;;;31.27;16.70;;;;;;;;;;5056651;28;20076;-68
2021/11/13 09:52:16;;;;;;;27.60;15.50;;;;;;;;;;5057866;28;20139;-68
2021/11/13 09:54:47;;;;;;;36.63;21.80;;;;;;;;;;5058555;28;20062;-71
2021/11/13 09:57:17;;;;;;;32.58;19.95;;;;;;;;;;5057281;28;20080;-65
2021/11/13 09:59:48;;;;;;;40.42;22.27;;;;;;;;;;5058766;28;20083;-63
2021/11/13 10:02:15;;;;;;;34.15;19.50;;;;;;;;;;5057548;28;20135;-64
2021/11/13 10:04:42;;;;;;;34.10;18.63;;;;;;;;;;5059078;28;20048;-74
2021/11/13 10:07:19;;;;;;;53.72;28.45;;;;;;;;;;5058056;28;20549;-64
2021/11/13 10:09:54;;;;;;;35.78;18.77;;;;;;;;;;5057111;28;20051;-63
2021/11/13 10:12:33;;;;;;;34.42;18.52;;;;;;;;;;5058523;28;20049;-64
2021/11/13 10:15:29;;;;;;;32.65;16.88;;;;;;;;;;5057279;28;20124;-64
2021/11/13 10:18:07;;;;;;;35.03;18.33;;;;;;;;;;5058055;28;20057;-63
2021/11/13 10:20:36;;;;;;;32.58;17.70;;;;;;;;;;5059505;28;20055;-61
2021/11/13 10:23:06;;;;;;;36.97;19.33;;;;;;;;;;5059817;28;20041;-67
2021/11/13 10:25:33;;;;;;;40.30;19.67;;;;;;;;;;5060118;28;20059;-76
2021/11/13 10:31:11;;;;;;;43.75;22.58;;;;;;;;;;5054575;28;20509;-68
2021/11/13 10:33:44;;;;;;;49.97;26.15;;;;;;;;;;5057754;28;20692;-69
2021/11/13 10:36:24;;;;;;;38.42;19.55;;;;;;;;;;5058106;28;20044;-71
2021/11/13 10:39:08;;;;;;;31.65;18.60;;;;;;;;;;5058048;28;20383;-64
2021/11/13 10:41:43;;;;;;;33.95;18.15;;;;;;;;;;5058387;28;20045;-61
2021/11/13 10:44:11;;;;;;;32.60;19.02;;;;;;;;;;5056718;28;20091;-64
2021/11/13 10:46:42;;;;;;;37.08;18.80;;;;;;;;;;5063796;28;20520;-64
2021/11/13 10:49:10;;;;;;;33.72;17.48;;;;;;;;;;5056541;28;20044;-63
2021/11/13 10:51:38;;;;;;;34.45;18.60;;;;;;;;;;5058476;28;20052;-64
2021/11/13 10:54:10;;;;;;;36.58;19.52;;;;;;;;;;5068835;28;20589;-63
2021/11/13 10:56:44;;;;;;;47.80;24.10;;;;;;;;;;5050317;28;20128;-63
2021/11/13 10:59:11;;;;;;;37.45;18.40;;;;;;;;;;5066166;28;20485;-64
2021/11/13 11:01:42;;;;;;;35.63;19.30;;;;;;;;;;5058649;28;20044;-64
2021/11/13 11:04:13;;;;;;;33.97;18.65;;;;;;;;;;5062796;28;20067;-64
2021/11/13 11:06:42;;;;;;;32.80;18.90;;;;;;;;;;5058113;28;20124;-62
2021/11/13 11:09:21;;;;;;;37.40;19.77;;;;;;;;;;5059874;28;20044;-64
2021/11/13 11:11:49;;;;;;;42.97;21.52;;;;;;;;;;5056588;28;20062;-62
2021/11/13 11:14:19;;;;;;;56.65;31.23;;;;;;;;;;5060163;28;20045;-62
2021/11/13 11:16:51;;;;;;;37.97;20.10;;;;;;;;;;5061136;28;20071;-61
2021/11/13 11:19:20;;;;;;;40.50;21.17;;;;;;;;;;5058553;28;20049;-62
2021/11/13 11:21:54;;;;;;;33.67;18.50;;;;;;;;;;5057099;28;20041;-62
2021/11/13 11:24:24;;;;;;;38.58;19.40;;;;;;;;;;5061354;28;20049;-63
2021/11/13 11:26:59;;;;;;;36.85;17.90;;;;;;;;;;5057428;28;20052;-63
2021/11/13 11:29:27;;;;;;;33.53;18.63;;;;;;;;;;5049076;28;20043;-64
2021/11/13 11:32:00;;;;;;;39.20;19.63;;;;;;;;;;5063048;28;20071;-64
2021/11/13 11:34:31;;;;;;;37.08;19.67;;;;;;;;;;5064834;28;20040;-63
2021/11/13 11:37:05;;;;;;;37.42;18.95;;;;;;;;;;5059620;28;20063;-63
2021/11/13 11:39:32;;;;;;;34.17;18.25;;;;;;;;;;5059647;28;20052;-62
2021/11/13 11:42:00;;;;;;;38.33;21.00;;;;;;;;;;5059031;28;20123;-62
2021/11/13 11:44:27;;;;;;;42.08;22.27;;;;;;;;;;5065409;28;20094;-61
2021/11/13 11:46:56;;;;;;;42.17;23.20;;;;;;;;;;5059038;28;20394;-63
2021/11/13 11:49:25;;;;;;;45.72;24.63;;;;;;;;;;5061909;28;20063;-61
2021/11/13 11:51:52;;;;;;;41.63;21.77;;;;;;;;;;5056681;28;20045;-63
2021/11/13 11:54:19;;;;;;;35.13;20.40;;;;;;;;;;5055748;28;20040;-63
2021/11/13 11:56:46;;;;;;;42.20;22.30;;;;;;;;;;5057495;28;20090;-64
2021/11/13 11:59:14;;;;;;;45.30;23.88;;;;;;;;;;5060473;28;20056;-63
2021/11/13 12:01:43;;;;;;;37.35;20.98;;;;;;;;;;5063749;28;20050;-63
2021/11/13 12:04:14;;;;;;;38.50;21.10;;;;;;;;;;5060597;28;20048;-63
2021/11/13 12:06:44;;;;;;;;;;;;;;;;;;5057891;28;20074;-63
2021/11/13 12:09:12;;;;;;;38.45;19.40;;;;;;;;;;5062330;28;19927;-63
2021/11/13 12:11:39;;;;;;;40.65;21.42;;;;;;;;;;5066130;28;20051;-62
2021/11/13 12:14:34;;;;;;;37.85;20.10;;;;;;;;;;5058450;28;20076;-62
2021/11/13 12:17:34;;;;;;;41.75;20.92;;;;;;;;;;5059690;28;20601;-62
2021/11/13 12:20:30;;;;;;;43.10;21.85;;;;;;;;;;5052679;28;20490;-64
2021/11/13 12:23:04;;;;;;;40.47;20.92;;;;;;;;;;5048345;28;20163;-62
2021/11/13 12:25:32;;;;;;;41.35;21.77;;;;;;;;;;5061952;28;20047;-64
2021/11/13 12:28:12;;;;;;;38.65;20.73;;;;;;;;;;5058381;28;20045;-65
2021/11/13 12:30:47;;;;;;;40.25;21.05;;;;;;;;;;5069851;28;20041;-65
2021/11/13 12:33:40;;;;;;;46.22;22.60;;;;;;;;;;5061106;28;20181;-62
2021/11/13 12:36:11;;;;;;;44.55;21.63;;;;;;;;;;5066819;28;20468;-63
2021/11/13 12:38:41;;;;;;;44.60;22.13;;;;;;;;;;5058019;28;20456;-63
2021/11/13 12:41:09;;;;;;;41.10;22.47;;;;;;;;;;5053895;28;20051;-63
2021/11/13 12:44:13;;;;;;;66.53;31.33;;;;;;;;;;5061657;28;20095;-61
2021/11/13 12:46:44;;;;;;;49.72;24.73;;;;;;;;;;5011417;28;20457;-63
2021/11/13 12:49:44;;;;;;;42.40;22.33;;;;;;;;;;5061590;28;20584;-65
2021/11/13 12:52:28;;;;;;;39.80;21.75;;;;;;;;;;5056073;28;20150;-65
2021/11/13 12:55:08;;;;;;;42.85;21.63;;;;;;;;;;5053535;28;20085;-63
2021/11/13 12:57:37;;;;;;;44.08;22.50;;;;;;;;;;5061884;28;20044;-62
2021/11/13 13:00:13;;;;;;;41.35;19.67;;;;;;;;;;5067545;28;20059;-63
2021/11/13 13:02:42;;;;;;;39.05;20.45;;;;;;;;;;5066012;28;20041;-62
2021/11/13 13:05:12;;;;;;;39.83;21.52;;;;;;;;;;5075041;28;20094;-64
2021/11/13 13:07:41;;;;;;;43.30;21.30;;;;;;;;;;5074404;28;20123;-64
2021/11/13 13:10:10;;;;;;;41.55;21.00;;;;;;;;;;5075010;28;20706;-64
2021/11/13 13:12:40;;;;;;;41.75;21.60;;;;;;;;;;5074897;28;20131;-65
2021/11/13 13:15:09;;;;;;;40.38;21.38;;;;;;;;;;5074830;28;20048;-63
2021/11/13 13:17:39;;;;;;;57.28;27.65;;;;;;;;;;5074854;28;20048;-63
2021/11/13 13:20:08;;;;;;;46.57;23.77;;;;;;;;;;5075178;28;20051;-62
2021/11/13 13:22:36;;;;;;;47.25;22.88;;;;;;;;;;5074577;28;20494;-64
2021/11/13 13:25:08;;;;;;;49.15;23.05;;;;;;;;;;5074624;28;20116;-65
2021/11/13 13:27:36;;;;;;;44.92;23.33;;;;;;;;;;5074849;28;20045;-64
2021/11/13 13:30:08;;;;;;;45.65;23.15;;;;;;;;;;5074592;28;20045;-63
2021/11/13 13:32:35;;;;;;;48.83;23.95;;;;;;;;;;5073558;28;20040;-63
2021/11/13 13:35:05;;;;;;;43.20;22.92;;;;;;;;;;5074280;28;20055;-63
2021/11/13 13:37:48;;;;;;;49.08;22.98;;;;;;;;;;5075107;28;20102;-65
2021/11/13 13:40:23;;;;;;;49.72;24.45;;;;;;;;;;5074674;28;20562;-64
2021/11/13 13:42:51;;;;;;;43.40;22.65;;;;;;;;;;5074007;28;20101;-64
2021/11/13 13:45:21;;;;;;;65.25;31.50;;;;;;;;;;5074153;28;20048;-65
2021/11/13 13:47:48;;;;;;;48.13;26.40;;;;;;;;;;5074062;28;20421;-63
2021/11/13 13:50:16;;;;;;;45.40;22.00;;;;;;;;;;5074087;28;20513;-62
2021/11/13 13:52:45;;;;;;;50.95;24.08;;;;;;;;;;5073912;28;20395;-63
2021/11/13 13:55:15;;;;;;;48.22;23.90;;;;;;;;;;5073914;28;20453;-64
2021/11/13 13:57:55;;;;;;;53.85;25.75;;;;;;;;;;5074097;28;20533;-64
2021/11/13 14:00:22;;;;;;;45.17;24.05;;;;;;;;;;5074615;28;20036;-64
2021/11/13 14:02:49;;;;;;;45.78;22.52;;;;;;;;;;5073832;28;20135;-64
2021/11/13 14:05:21;;;;;;;48.97;25.35;;;;;;;;;;5073834;28;20084;-64
2021/11/13 14:07:49;;;;;;;48.63;23.27;;;;;;;;;;5073747;28;20080;-64
2021/11/13 14:10:17;;;;;;;47.70;24.38;;;;;;;;;;5073511;28;20556;-64
2021/11/13 14:12:50;;;;;;;49.30;23.77;;;;;;;;;;5073584;28;20080;-64
2021/11/13 14:15:19;;;;;;;48.83;23.73;;;;;;;;;;5073264;28;20055;-63
2021/11/13 14:17:47;;;;;;;49.28;24.95;;;;;;;;;;5073470;28;20087;-72
2021/11/13 14:20:19;;;;;;;41.30;21.75;;;;;;;;;;5073435;28;20041;-65
2021/11/13 14:23:04;;;;;;;49.88;23.63;;;;;;;;;;5073394;28;20136;-69
2021/11/13 14:25:41;;;;;;;48.33;22.08;;;;;;;;;;5072930;28;20055;-68
2021/11/13 14:28:10;;;;;;;49.35;22.88;;;;;;;;;;5073556;28;20055;-64
2021/11/13 14:30:39;;;;;;;54.22;26.05;;;;;;;;;;5072883;28;20067;-65
2021/11/13 14:33:07;;;;;;;46.88;26.48;;;;;;;;;;5073893;28;20460;-66
2021/11/13 14:35:35;;;;;;;43.60;22.27;;;;;;;;;;5072942;28;20489;-64
2021/11/13 14:38:06;;;;;;;48.63;24.02;;;;;;;;;;5073170;28;20122;-66
2021/11/13 14:40:34;;;;;;;49.72;24.98;;;;;;;;;;5073163;28;20044;-63
2021/11/13 14:43:01;;;;;;;55.45;25.85;;;;;;;;;;5072956;28;20163;-65
2021/11/13 14:45:33;;;;;;;57.35;29.15;;;;;;;;;;5073343;28;20416;-64
2021/11/13 14:48:01;;;;;;;53.92;25.70;;;;;;;;;;5072893;28;20482;-64